Latest METARs, TAFs and NOTAMs for LIRA


---------------------------------------------------------------------------
	(OBSERVATIONS)
LIRA 260150Z VRB02KT CAVOK 18/15 Q1017=
LIRA 260120Z 02003KT CAVOK 18/16 Q1017=
LIRA 260050Z 08003KT CAVOK 17/15 Q1017=
LIRA 260020Z 00000KT CAVOK 17/15 Q1017=
LIRA 252350Z 14001KT CAVOK 17/15 Q1017=
LIRA 252320Z 18001KT CAVOK 18/15 Q1017=
---------------------------------------------------------------------------
	(FC)
Sorry, FC For LIRA Not Found
---------------------------------------------------------------------------
	(TERMINAL AREA FORECAST)
LIRA 252300Z 2600/2624 VRB05KT 9999 SCT025
    TEMPO 2601/2605 1500 BCFG
    BECMG 2610/2612 24010KT
    BECMG 2617/2619 VRB05KT=
---------------------------------------------------------------------------
	(NOTAMS)


LIRA A0880/18 REF AIP AD 2 LIRA 4-1 (AIP AIRAC AMDT 1/18 - EFFECTIVE
    FROM 1 MAR 2018) STANDARD INSTRUMENT ARRIVAL PROCEDURE 'CONVENTIONAL
    AND RNAV1' ABOVE WAYPOINT 'RA417' MODIFY DISTANCE FROM NAVAID
    'LAT DME' TO READ 25.5NM INSTEAD OF 31NM. 01 MAR 00:00 2018
    UNTIL PERM. CREATED: 08 FEB 10:06 2018

LIRA A1264/18 ROMA VOR/DME 'ROM' FREQ 110.80MHZ CH 45X, REMOTE
    CONTROL NOT AVAILABLE REF AIP AD 2 LIRA 1-10. 27 FEB 14:11
    2018 UNTIL 27 MAY 23:59 2018 ESTIMATED. CREATED: 27 FEB 14:12
    2018

LIRA A1614/18 REF AIP AD 2 LIRA 4-9 STANDARD INSTRUMENT ARRIVAL
    CHART REFERRED TO MINIMUM SECTOR ALTITUDE BOX (OST VOR/NDB)
    MODIFY MINIMA AS FLW: SECTOR 220DEG-310DEG: 5800FT INSTEAD
    OF 5200FT. 14 MAR 08:12 2018 UNTIL PERM. CREATED: 14 MAR
    08:13 2018

LIRA A1693/18 LATINA VOR/DME 'LAT' FREQ 111.20MHZ CH 49X AVBL
    AS FLW: RDL018 - VOR BEYOND 23NM NOT USABLE - DME BEYOND
    18NM NOT USABLE REF AIP AD 2 LIRA 1-9. 16 MAR 09:13 2018
    UNTIL 10 JUN 23:59 2018 ESTIMATED. CREATED: 16 MAR 09:13
    2018

LIRA A2066/18 OBSTACLE LGT NOT AVBL PSN COORD (WGS-84): 414649.7363N
    0123617.8489E / ELEV 490.71FT AMSL 414643.7131N 0123652.9328E
    / ELEV 563.71FT AMSL 414641.5053N 0123653.9597E / ELEV 564.23FT
    AMSL 414634.2033N 0123607.3476E / ELEV 529.85FT AMSL REF
    AOC TYPE B NR RA 4/4. 29 MAR 12:20 2018 UNTIL 27 JUN 05:00
    2018 ESTIMATED. CREATED: 29 MAR 12:20 2018

LIRA A2132/18 GRASS CUTTING ACTIVITY ON MANOEUVRING AREA. PRESENCE
    MEN AND EQPT IN RDO CTC WITH TWR REF AIP AD 2 LIRA 2-1. DAILY
    2200-0330, 03 APR 22:00 2018 UNTIL 02 JUL 03:30 2018 ESTIMATED.
    CREATED: 03 APR 13:44 2018

LIRA A2235/18 ROMA/CIAMPINO AD: ACTIVATION ON TRIAL BASIS OF
    NOISE ABATEMENT ICP (INITIAL CLIMB PROCEDURE)/SID RWY15.
    SUP 12/14 IN FORCE SINCE 15 NOV 2014, END OF VALIDITY POSTPONED
    TO 31 DECEMBER 2018 EST. 06 APR 20:09 2018 UNTIL 04 JUL 23:59
    2018 ESTIMATED. CREATED: 06 APR 20:09 2018

LIRA A2236/18 AIP PAGE AD 2 LIRA 6-1 'SID RWY 15' SUSPENDED.
    FOR SID RWY 15 REFER TO PAGE AD 2 LIRA 6-9 'SID RWY 15' (AIP
    SUP 12/2014 IN FORCE UNTIL 31 DEC 2018 EST. 06 APR 21:23
    2018 UNTIL 04 JUL 23:59 2018 ESTIMATED. CREATED: 06 APR 21:23
    2018

LIRA A2400/18 TRIGGER NOTAM-AIP SUP S3/18 IN FORCE FM 24 MAY
    TO 06 DEC 2018 EST ROMA CIAMPINO AIRPORT: REFURBISHING WORKS
    OF THE PAVEMENT OF APRON 100, APRON 200, APRON TWY 'SB' AND
    ON A PORTION OF TWY 'A'. SUP IS POSTED AND AVBL ON WEBSITE
    WWW.ENAV.IT. 24 MAY 00:00 2018 UNTIL 06 JUN 23:59 2018. CREATED:
    12 APR 17:17 2018

LIRA A2455/18 STANDARD INSTRUMENT DEPARTURE PROCEDURE RWY15 MODIFY
    REMARK 4 AS FLW: ONLY FOR PLANNING PURPOSE NORTH AND WEST
    BOUND DEPARTURES CLEARED VIA SID OST WILL CONTINUE: - DCT
    TO NENIG AND THEN DCT TO GILIO OR - DCT TO SOSIV AND THEN
    DCT TO SOVAN ACCORDING TO NEXT ROUTE SEGMENT REF AIP AD 2
    LIRA 6-14 (AIP SUP 12/14 END OF VALIDITY POSTPONED TO 31
    DECEMBER 2018 EST. 16 APR 09:51 2018 UNTIL 04 JUL 23:59 2018
    ESTIMATED. CREATED: 16 APR 09:51 2018

LIRA A2605/18 TAXIWAY 'B' CLOSED TO ALL OPS FROM TWY 'BA' TO
    TWY 'BB' BOTH INCLUDED REF AIP 2 LIRA 2-1. 20 APR 13:58 2018
    UNTIL 19 JUL 10:00 2018 ESTIMATED. CREATED: 20 APR 13:58
    2018

LIRA A3163/17 REF AIP AD 2 LIRA 6-7 STANDARD INSTRUMENT DEPARTURE
    PROCEDURE RWY 33 MODIFY REMARK 1 AS FLW: ONLY FOR PLANNING
    PURPOSE NORTH AND WEST BOUND DEPARTURES CLEARED VIA SID OST
    WILL CONTINUE: - DCT TO NENIG AND THEN DCT TO GILIO OR -
    DCT TO SOSIV AND THEN DCT TO SOVAN ACCORDING TO NEXT ROUTE
    SEGMENT. 25 MAY 00:00 2017 UNTIL PERM. CREATED: 19 MAY 09:46
    2017

LIRA A3220/18 FLW MISSED APPROACH PROCEDURES (ATC DISCRETION)
    'VOR A (CIRCLING) RWY33' SUBAR AND 'RNAV A (CIRCLING) RWY33'
    AS FLW: MAX HLDG LEVEL FL110 WITH IAS MAX 210KT DUE TO MIL
    PJE ANNOUNCED BY NOTAM W1063/18. REF AIP AD 2 LIRA 5. MON-FRI
    0600-1600, 15 MAY 06:00 2018 UNTIL 10 AUG 16:00 2018. CREATED:
    14 MAY 11:35 2018

LIRA A3441/18 ROMA CIAMPINO AIRPORT: REFURBISHING WORKS OF THE
    PAVEMENT OF APRON 100,APRON 200,APRON TWY SB AND ON A PORTION
    OF TWY A (AIP SUP S3/18 IN FORCE FM 24 MAY TO 06 DEC EST)
    CURRENT STATUS OF WORKING PHASES : -PHASE 1: NOT ACTIVEDED
    YET,IT WILL BE ACTIVATED TENTATIVELY ON 01 JUL 2018 -PHASE
    2: NOT ACTIVATED YET -PHASE 3: NOT ACTIVATED YET -PHASE 4:
    NOT ACTIVATED YET -PHASE 5: NOT ACTIVATED YET. 24 MAY 00:00
    2018 UNTIL 21 AUG 23:59 2018 ESTIMATED. CREATED: 22 MAY 12:20
    2018

LIRA A3570/18 AERODROME CONTROL SERVICE PROVIDED WITHOUT USE
    OF RADAR DUE TO MAINT REF AIP AD 2 LIRA 1-18. 25 MAY 07:27
    2018 UNTIL 04 JUN 06:00 2018 ESTIMATED. CREATED: 25 MAY 07:27
    2018

LIRA A4464/17 REF AOC TYPE B NR RA 4/3 NEW OBSTACLE ERECTED ANTENNA
    ON BUILDING PENETRATING CONICAL SURFACE PSN COORD (WGS-84):
    414622.5N 0123947.5E ELEV AGL 22.6M/74.1FT ELEV AMSL 387.6M/1271.6FT
    ICAO SIGNAL UNPROVIDED. 05 JUL 12:25 2017 UNTIL PERM. CREATED:
    05 JUL 12:25 2017

LIRA A6615/06 APCH LGT SIMPLIFIED REDUCED SYSTEM RWY33 TYPE 'STROBE'
    INSTL ON FRANGIBLE SUPPORT AND AVBL WITH FLW CHARACTERISTICS:
    5 UNIDIRECTIONAL FLASHING, 2 TIMES PER SECOND, HIGHT INTST
    LGT ALONG EXTENSION RWY CL, FST LGT 56M FM THR33. SEQUENT
    LIGHTS 56M ONE FM EACH OTHER, TOTAL LENGHT 280M 2 UNIDIRECTIONAL
    FLASHING, 2 TIMES PER SECOND, HIGHT INTENSITY LGT, BOTH SIDE
    THR RWY33 DIST 12M. REF AIP AGA 2-39.5 29 DEC 18:09 2006
    UNTIL 29 JAN 23:59 ESTIMATED

LIRA A7565/17 REF AIP AD 2 LIRA 2-5 'AIRCRAFT PARKING DOCKING
    CHART: SOUTH AREA' ACFT STAND 314 CHG PSN AS FOLLOW: PSN
    COORD (WGS-84) 414741.38N 0123533.42E. 09 NOV 00:00 2017
    UNTIL PERM. CREATED: 08 NOV 12:27 2017

LIRA F0015/07 [DEFENSE ENERGY SUPPORT CENTER ADVISORY] FUEL AVAILABILITY
    NOT AVAILABLE PHONE AHEAD FOR FUEL AVAILABILITY. 12 JUL 10:20
    2020 UNTIL 01 AUG 25:20 2020

LIRA V0063/18 [US DOD PROCEDURAL NOTAM] STANDARD INSTRUMENT DEPARTURE
    (SID) NOT AUTHORIZED SID RWY 15 NOT AUTHORIZED DUE TO HOST
    SOURCE DELAYED IMPLEMENTATION. 01 MAR 15:06 2018 UNTIL 31
    DEC 23:59 2018. CREATED: 01 MAR 15:06 2018

---------------------------------------------------------------------------